Time;durP1;ratioP1;P1;durP2;ratioP2;P2;SDS_P1;SDS_P2;PMS_P1;PMS_P2;Temp;Humidity;BMP_temperature;BMP_pressure;BME280_temperature;BME280_humidity;BME280_pressure;Samples;Min_cycle;Max_cycle;Signal;HPM_P1;HPM_P2
2021/12/09 00:00:37;;;;;;;7.80;3.03;;;3.90;99.90;;;;;;6248197;22;20463;-85
2021/12/09 00:03:07;;;;;;;7.17;3.40;;;3.90;99.90;;;;;;6247681;22;20400;-83
2021/12/09 00:05:36;;;;;;;6.83;3.50;;;3.90;99.90;;;;;;6248485;23;20410;-84
2021/12/09 00:08:06;;;;;;;11.87;3.83;;;3.90;99.90;;;;;;6247474;23;20398;-91
2021/12/09 00:10:34;;;;;;;5.50;2.83;;;3.80;99.90;;;;;;6247913;23;20392;-90
2021/12/09 00:13:02;;;;;;;9.47;3.33;;;3.90;99.90;;;;;;6247965;23;20395;-87
2021/12/09 00:15:30;;;;;;;13.07;3.33;;;3.90;99.90;;;;;;6246589;23;20922;-76
2021/12/09 00:17:58;;;;;;;10.07;3.70;;;3.80;99.90;;;;;;6247016;23;20925;-85
2021/12/09 00:20:26;;;;;;;10.20;3.43;;;3.70;99.90;;;;;;6247699;23;20439;-83
2021/12/09 00:22:53;;;;;;;9.00;3.70;;;3.70;99.90;;;;;;6246280;23;20395;-80
2021/12/09 00:25:22;;;;;;;9.97;3.67;;;3.70;99.90;;;;;;6247299;22;20387;-88
2021/12/09 00:27:52;;;;;;;10.53;3.50;;;3.80;99.90;;;;;;6248403;23;20470;-88
2021/12/09 00:30:20;;;;;;;5.10;3.07;;;3.80;99.90;;;;;;6247418;23;20398;-90
2021/12/09 00:32:55;;;;;;;6.13;3.27;;;3.80;99.90;;;;;;6247356;23;20461;-81
2021/12/09 00:35:28;;;;;;;12.50;3.53;;;3.60;99.90;;;;;;6247768;23;20402;-93
2021/12/09 00:37:59;;;;;;;12.93;3.57;;;3.60;99.90;;;;;;6247587;23;20414;-77
2021/12/09 00:40:26;;;;;;;9.27;3.13;;;3.70;99.90;;;;;;6246506;22;20435;-88
2021/12/09 00:42:53;;;;;;;8.37;3.60;;;3.70;99.90;;;;;;6248031;23;20392;-85
2021/12/09 00:45:21;;;;;;;7.13;2.63;;;3.60;99.90;;;;;;6247454;23;20916;-90
2021/12/09 00:47:49;;;;;;;8.43;3.33;;;3.70;99.90;;;;;;6249240;22;20414;-76
2021/12/09 00:50:18;;;;;;;8.97;3.33;;;3.60;99.90;;;;;;6252020;23;20479;-75
2021/12/09 00:52:46;;;;;;;6.70;3.17;;;3.60;99.90;;;;;;6253037;23;21102;-77
2021/12/09 00:55:16;;;;;;;10.87;3.03;;;3.60;99.90;;;;;;6253660;23;20387;-89
2021/12/09 00:57:45;;;;;;;8.07;3.43;;;3.60;99.90;;;;;;6252398;23;20409;-85
2021/12/09 01:00:14;;;;;;;7.10;3.47;;;3.60;99.90;;;;;;6246516;23;20443;-80
2021/12/09 01:02:41;;;;;;;6.27;3.27;;;3.50;99.90;;;;;;6246030;23;20391;-81
2021/12/09 01:05:11;;;;;;;7.07;3.60;;;3.40;99.90;;;;;;6245921;23;20419;-79
2021/12/09 01:07:41;;;;;;;8.40;3.60;;;3.40;99.90;;;;;;6246342;23;20395;-76
2021/12/09 01:10:10;;;;;;;7.03;3.00;;;3.40;99.90;;;;;;6245933;23;20387;-77
2021/12/09 01:12:38;;;;;;;5.93;2.53;;;3.40;99.90;;;;;;6246597;23;20396;-77
2021/12/09 01:15:07;;;;;;;10.03;3.20;;;3.40;99.90;;;;;;6246195;23;20395;-74
2021/12/09 01:17:34;;;;;;;6.80;2.70;;;3.30;99.90;;;;;;6246451;23;20415;-76
2021/12/09 01:20:02;;;;;;;7.63;3.17;;;3.40;99.90;;;;;;6245987;23;20898;-81
2021/12/09 01:22:37;;;;;;;8.30;2.90;;;3.40;99.90;;;;;;6246811;23;20395;-78
2021/12/09 01:25:14;;;;;;;3.80;2.70;;;3.30;99.90;;;;;;6247011;23;20395;-79
2021/12/09 01:27:45;;;;;;;8.80;3.20;;;3.30;99.90;;;;;;6246294;23;20387;-75
2021/12/09 01:30:16;;;;;;;4.73;2.43;;;3.30;99.90;;;;;;6246740;22;20712;-76
2021/12/09 01:32:49;;;;;;;8.33;3.33;;;3.40;99.90;;;;;;6246292;22;20407;-76
2021/12/09 01:35:17;;;;;;;9.40;3.45;;;3.40;99.90;;;;;;6245915;23;20463;-75
2021/12/09 01:37:45;;;;;;;7.43;2.83;;;3.50;99.90;;;;;;6247273;23;20553;-82
2021/12/09 01:40:19;;;;;;;10.13;3.00;;;3.50;99.90;;;;;;6250292;23;20441;-91
2021/12/09 01:42:52;;;;;;;6.93;2.70;;;3.50;99.90;;;;;;6254352;23;20474;-84
2021/12/09 01:45:21;;;;;;;8.53;3.00;;;3.40;99.90;;;;;;6253222;23;20412;-88
2021/12/09 01:47:49;;;;;;;6.87;2.87;;;3.50;99.90;;;;;;6253989;23;20398;-91
2021/12/09 01:50:17;;;;;;;7.03;2.70;;;3.50;99.90;;;;;;6254297;23;20391;-91
2021/12/09 01:52:45;;;;;;;5.10;2.47;;;3.50;99.90;;;;;;6253392;23;20402;-90
2021/12/09 01:55:16;;;;;;;4.20;2.70;;;3.50;99.90;;;;;;6251765;23;20394;-79
2021/12/09 01:57:52;;;;;;;7.03;2.40;;;3.50;99.90;;;;;;6250143;23;20819;-74
2021/12/09 02:00:23;;;;;;;9.77;2.80;;;3.50;99.90;;;;;;6252032;23;20434;-77
2021/12/09 02:02:50;;;;;;;8.03;2.37;;;3.50;99.90;;;;;;6260978;23;20392;-90
2021/12/09 02:05:18;;;;;;;6.73;2.37;;;3.50;99.90;;;;;;6259552;23;20477;-85
2021/12/09 02:07:45;;;;;;;5.17;2.37;;;3.50;99.90;;;;;;6259142;23;20399;-85
2021/12/09 02:10:18;;;;;;;4.17;2.03;;;3.50;99.90;;;;;;6259456;23;20393;-81
2021/12/09 02:12:50;;;;;;;5.33;2.33;;;3.60;99.90;;;;;;6261700;23;20396;-88
2021/12/09 02:15:18;;;;;;;7.87;2.40;;;3.40;99.90;;;;;;6253777;22;20450;-91
2021/12/09 02:17:49;;;;;;;9.67;2.63;;;3.40;99.90;;;;;;6251108;23;20423;-86
2021/12/09 02:20:17;;;;;;;7.27;2.50;;;3.40;99.90;;;;;;6250362;23;20437;-85
2021/12/09 02:22:51;;;;;;;7.07;2.72;;;3.30;99.90;;;;;;6250088;23;20392;-87
2021/12/09 02:25:20;;;;;;;8.43;3.17;;;3.40;99.90;;;;;;6250401;23;20161;-88
2021/12/09 02:27:47;;;;;;;5.03;2.00;;;3.40;99.90;;;;;;6249168;23;20406;-81
2021/12/09 02:30:16;;;;;;;5.20;2.17;;;3.40;99.90;;;;;;6248548;23;20395;-78
2021/12/09 02:32:44;;;;;;;4.70;2.10;;;3.40;99.90;;;;;;6247829;23;20396;-77
2021/12/09 02:35:12;;;;;;;4.13;1.80;;;3.40;99.90;;;;;;6247498;23;20438;-77
2021/12/09 02:37:40;;;;;;;7.53;2.30;;;3.30;99.90;;;;;;6247202;23;20395;-80
2021/12/09 02:40:10;;;;;;;8.10;3.00;;;3.30;99.90;;;;;;6247726;23;20427;-82
2021/12/09 02:42:37;;;;;;;5.30;2.43;;;3.40;99.90;;;;;;6247525;23;20403;-76
2021/12/09 02:45:07;;;;;;;7.20;2.13;;;3.40;99.90;;;;;;6247462;23;20450;-75
2021/12/09 02:47:34;;;;;;;9.00;2.88;;;3.40;99.90;;;;;;6246452;23;20854;-80
2021/12/09 02:50:01;;;;;;;10.47;2.77;;;3.40;99.90;;;;;;6247455;23;20163;-75
2021/12/09 02:52:28;;;;;;;4.00;2.23;;;3.50;99.90;;;;;;6246938;23;20391;-78
2021/12/09 02:54:57;;;;;;;6.23;2.53;;;3.50;99.90;;;;;;6246897;23;20494;-75
2021/12/09 02:57:26;;;;;;;7.47;2.77;;;3.50;99.90;;;;;;6246456;23;20388;-77
2021/12/09 02:59:54;;;;;;;6.57;2.20;;;3.40;99.90;;;;;;6247001;23;20707;-79
2021/12/09 03:02:21;;;;;;;5.00;2.47;;;3.50;99.90;;;;;;6247183;23;20392;-76
2021/12/09 03:04:52;;;;;;;8.20;2.20;;;3.40;99.90;;;;;;6246550;23;20732;-74
2021/12/09 03:07:23;;;;;;;7.10;2.70;;;3.40;99.90;;;;;;6246702;23;20885;-75
2021/12/09 03:09:54;;;;;;;6.93;2.07;;;3.40;99.90;;;;;;6246966;23;20395;-77
2021/12/09 03:12:24;;;;;;;7.95;2.90;;;3.40;99.90;;;;;;6246704;23;20501;-84
2021/12/09 03:14:53;;;;;;;7.97;2.53;;;3.40;99.90;;;;;;6247495;23;20165;-81
2021/12/09 03:17:21;;;;;;;4.87;2.00;;;3.50;99.90;;;;;;6247193;23;20399;-75
2021/12/09 03:19:48;;;;;;;7.63;2.23;;;3.40;99.90;;;;;;6246492;23;20438;-78
2021/12/09 03:22:16;;;;;;;8.40;2.37;;;3.50;99.90;;;;;;6246959;23;20438;-76
2021/12/09 03:24:43;;;;;;;3.87;1.83;;;3.40;99.90;;;;;;6246674;23;20392;-75
2021/12/09 03:27:11;;;;;;;8.03;2.30;;;3.40;99.90;;;;;;6246636;23;20395;-75
2021/12/09 03:29:40;;;;;;;7.63;2.60;;;3.40;99.90;;;;;;6246600;23;20714;-75
2021/12/09 03:32:12;;;;;;;12.47;2.73;;;3.40;99.90;;;;;;6246896;22;20395;-75
2021/12/09 03:34:40;;;;;;;8.87;2.50;;;3.40;99.90;;;;;;6247402;23;20407;-76
2021/12/09 03:37:09;;;;;;;7.15;3.10;;;3.30;99.90;;;;;;6247073;23;20393;-79
2021/12/09 03:39:38;;;;;;;8.27;2.80;;;3.40;99.90;;;;;;6246540;23;20166;-79
2021/12/09 03:42:08;;;;;;;10.73;3.40;;;3.40;99.90;;;;;;6246389;23;20530;-76
2021/12/09 03:44:35;;;;;;;7.03;2.83;;;3.40;99.90;;;;;;6246364;23;20403;-80
2021/12/09 03:47:06;;;;;;;6.43;2.37;;;3.40;99.90;;;;;;6246451;23;20719;-75
2021/12/09 03:49:35;;;;;;;9.17;2.83;;;3.30;99.90;;;;;;6246610;23;20475;-75
2021/12/09 03:52:04;;;;;;;10.20;3.00;;;3.30;99.90;;;;;;6246503;23;20417;-75
2021/12/09 03:54:32;;;;;;;6.90;2.57;;;3.30;99.90;;;;;;6245812;23;20393;-75
2021/12/09 03:56:59;;;;;;;7.53;2.80;;;3.30;99.90;;;;;;6246720;22;20390;-77
2021/12/09 03:59:26;;;;;;;9.87;3.20;;;3.30;99.90;;;;;;6246129;23;20399;-76
2021/12/09 04:01:54;;;;;;;10.52;3.50;;;3.40;99.90;;;;;;6245262;23;20426;-81
2021/12/09 04:04:22;;;;;;;9.23;3.13;;;3.40;99.90;;;;;;6246217;22;20173;-77
2021/12/09 04:06:50;;;;;;;10.13;3.10;;;3.40;99.90;;;;;;6245329;23;20897;-77
2021/12/09 04:09:22;;;;;;;13.53;3.03;;;3.50;99.90;;;;;;6245882;23;20423;-76
2021/12/09 04:11:49;;;;;;;11.27;3.37;;;3.50;99.90;;;;;;6245644;23;20415;-77
2021/12/09 04:14:17;;;;;;;7.57;2.70;;;3.50;99.90;;;;;;6244208;23;20913;-76
2021/12/09 04:16:45;;;;;;;7.37;2.53;;;3.60;99.90;;;;;;6244481;23;20510;-75
2021/12/09 04:19:12;;;;;;;9.97;3.63;;;3.50;99.90;;;;;;6244602;23;20891;-77
2021/12/09 04:21:40;;;;;;;12.10;3.57;;;3.50;99.90;;;;;;6245735;23;20450;-78
2021/12/09 04:24:11;;;;;;;9.40;3.70;;;3.50;99.90;;;;;;6246004;22;20383;-76
2021/12/09 04:26:39;;;;;;;10.83;3.07;;;3.50;99.90;;;;;;6245730;23;20383;-77
2021/12/09 04:29:07;;;;;;;6.03;2.87;;;3.70;99.90;;;;;;6246085;23;20414;-77
2021/12/09 04:31:35;;;;;;;12.00;3.03;;;3.60;99.90;;;;;;6246132;22;20939;-75
2021/12/09 04:34:02;;;;;;;6.47;2.40;;;3.50;99.90;;;;;;6245854;23;20404;-75
2021/12/09 04:36:29;;;;;;;10.30;2.90;;;3.50;99.90;;;;;;6245544;23;20724;-75
2021/12/09 04:38:56;;;;;;;11.87;2.83;;;3.60;99.90;;;;;;6245788;23;20394;-76
2021/12/09 04:41:26;;;;;;;7.93;3.47;;;3.50;99.90;;;;;;6246085;23;20438;-77
2021/12/09 04:43:53;;;;;;;7.70;3.77;;;3.50;99.90;;;;;;6246036;23;20395;-79
2021/12/09 04:46:20;;;;;;;9.17;2.93;;;3.50;99.90;;;;;;6245860;23;20490;-77
2021/12/09 04:48:47;;;;;;;10.13;3.27;;;3.50;99.90;;;;;;6245670;23;20392;-75
2021/12/09 04:51:13;;;;;;;8.83;3.33;;;3.50;99.90;;;;;;6245020;22;20407;-78
2021/12/09 04:53:41;;;;;;;11.73;3.23;;;3.50;99.90;;;;;;6245548;23;20400;-76
2021/12/09 04:56:08;;;;;;;9.07;2.83;;;3.50;99.90;;;;;;6246177;23;20391;-73
2021/12/09 04:58:38;;;;;;;9.93;2.90;;;3.50;99.90;;;;;;6245587;23;20391;-75
2021/12/09 05:01:07;;;;;;;8.63;3.40;;;3.50;99.90;;;;;;6245799;23;20438;-78
2021/12/09 05:03:34;;;;;;;13.73;3.40;;;3.50;99.90;;;;;;6245829;23;20392;-75
2021/12/09 05:06:01;;;;;;;8.97;3.17;;;3.50;99.90;;;;;;6245663;23;20391;-75
2021/12/09 05:08:31;;;;;;;11.57;3.43;;;3.60;99.90;;;;;;6246069;23;20391;-74
2021/12/09 05:11:06;;;;;;;9.07;2.87;;;3.50;99.90;;;;;;6245815;23;20407;-74
2021/12/09 05:13:35;;;;;;;9.30;3.70;;;3.60;99.90;;;;;;6247377;23;20398;-75
2021/12/09 05:16:05;;;;;;;10.65;3.92;;;3.50;99.90;;;;;;6246020;23;20390;-75
2021/12/09 05:18:35;;;;;;;7.10;3.43;;;3.60;99.90;;;;;;6247072;23;20487;-78
2021/12/09 05:21:02;;;;;;;8.80;3.20;;;3.70;99.90;;;;;;6247381;22;20518;-74
2021/12/09 05:23:32;;;;;;;11.87;3.57;;;3.70;99.90;;;;;;6247624;23;20392;-74
2021/12/09 05:26:01;;;;;;;9.60;3.03;;;3.70;99.90;;;;;;6247650;23;20445;-74
2021/12/09 05:28:32;;;;;;;8.57;3.27;;;3.80;99.90;;;;;;6247976;23;20395;-75
2021/12/09 05:33:48;;;;;;;9.30;3.40;;;3.80;99.90;;;;;;6247559;23;20455;-76
2021/12/09 05:36:16;;;;;;;9.77;3.30;;;3.80;99.90;;;;;;6247302;23;20391;-76
2021/12/09 05:38:43;;;;;;;11.50;4.00;;;3.80;99.90;;;;;;6247987;23;20402;-76
2021/12/09 05:41:10;;;;;;;11.27;3.63;;;3.80;99.90;;;;;;6247847;23;20490;-81
2021/12/09 05:43:40;;;;;;;12.10;3.53;;;3.80;99.90;;;;;;6247577;23;20391;-75
2021/12/09 05:46:07;;;;;;;9.30;3.73;;;3.90;99.90;;;;;;6247480;23;20396;-77
2021/12/09 05:48:35;;;;;;;11.07;3.70;;;3.80;99.90;;;;;;6247906;23;20392;-75
2021/12/09 05:51:04;;;;;;;6.73;3.20;;;3.80;99.90;;;;;;6247158;23;20406;-77
2021/12/09 05:53:30;;;;;;;9.60;3.17;;;3.70;99.90;;;;;;6247911;23;20392;-75
2021/12/09 05:55:57;;;;;;;10.60;3.00;;;3.70;99.90;;;;;;6247351;23;20397;-76
2021/12/09 05:58:25;;;;;;;11.60;3.53;;;3.80;99.90;;;;;;6247837;23;20392;-76
2021/12/09 06:00:54;;;;;;;9.97;3.60;;;3.80;99.90;;;;;;6247009;23;20403;-82
2021/12/09 06:03:22;;;;;;;11.13;3.50;;;3.80;99.90;;;;;;6246794;23;20395;-75
2021/12/09 06:05:49;;;;;;;10.00;3.57;;;3.80;99.90;;;;;;6247028;23;20418;-75
2021/12/09 06:08:18;;;;;;;6.27;2.67;;;3.80;99.90;;;;;;6247765;23;20887;-75
2021/12/09 06:10:45;;;;;;;9.00;3.30;;;3.70;99.90;;;;;;6247741;23;20391;-81
2021/12/09 06:13:13;;;;;;;12.97;3.53;;;3.70;99.90;;;;;;6247111;23;20722;-78
2021/12/09 06:15:41;;;;;;;7.57;3.60;;;3.80;99.90;;;;;;6248169;23;20735;-80
2021/12/09 06:18:08;;;;;;;10.07;3.40;;;3.90;99.90;;;;;;6246906;22;20870;-80
2021/12/09 06:20:36;;;;;;;7.97;3.00;;;3.90;99.90;;;;;;6247581;23;20520;-87
2021/12/09 06:23:09;;;;;;;12.40;3.43;;;4.00;99.90;;;;;;6248253;23;20439;-88
2021/12/09 06:25:43;;;;;;;11.00;3.00;;;4.00;99.90;;;;;;6248454;23;20388;-87
2021/12/09 06:28:10;;;;;;;11.93;3.30;;;4.00;99.90;;;;;;6248414;23;20390;-82
2021/12/09 06:30:37;;;;;;;18.10;3.20;;;4.00;99.90;;;;;;6246939;23;20392;-77
2021/12/09 06:33:05;;;;;;;9.73;3.53;;;4.00;99.90;;;;;;6246451;23;20388;-77
2021/12/09 06:35:32;;;;;;;7.77;3.43;;;4.00;99.90;;;;;;6246678;23;20450;-77
2021/12/09 06:38:00;;;;;;;15.37;3.27;;;4.00;99.90;;;;;;6246722;23;20395;-77
2021/12/09 06:40:27;;;;;;;7.17;2.80;;;4.10;99.90;;;;;;6247056;23;20400;-81
2021/12/09 06:42:56;;;;;;;10.03;2.90;;;4.10;99.90;;;;;;6246902;23;20444;-76
2021/12/09 06:45:24;;;;;;;8.13;3.00;;;4.00;99.90;;;;;;6247474;23;20394;-76
2021/12/09 06:47:53;;;;;;;7.07;3.03;;;4.10;99.90;;;;;;6246308;23;20470;-75
2021/12/09 06:50:21;;;;;;;7.13;2.67;;;4.20;99.90;;;;;;6247409;22;20398;-76
2021/12/09 06:52:50;;;;;;;12.17;3.73;;;4.20;99.90;;;;;;6246790;23;20392;-76
2021/12/09 06:55:20;;;;;;;11.67;3.80;;;4.30;99.90;;;;;;6245719;23;20444;-80
2021/12/09 06:57:48;;;;;;;10.03;3.40;;;4.40;99.90;;;;;;6246666;22;20485;-75
2021/12/09 07:00:19;;;;;;;6.90;2.87;;;4.40;99.90;;;;;;6247273;23;20391;-75
2021/12/09 07:02:47;;;;;;;11.90;3.00;;;4.30;99.90;;;;;;6246931;23;20200;-75
2021/12/09 07:05:15;;;;;;;9.70;3.23;;;4.30;99.90;;;;;;6247170;23;20702;-76
2021/12/09 07:07:43;;;;;;;14.93;3.50;;;4.30;99.90;;;;;;6247015;23;20418;-75
2021/12/09 07:10:11;;;;;;;7.00;3.40;;;4.30;99.90;;;;;;6246531;23;20400;-77
2021/12/09 07:12:38;;;;;;;12.97;3.37;;;4.30;99.90;;;;;;6246877;23;20384;-76
2021/12/09 07:15:07;;;;;;;16.67;3.83;;;4.40;99.90;;;;;;6246300;23;20396;-75
2021/12/09 07:17:36;;;;;;;5.07;3.90;;;4.40;99.90;;;;;;6246558;23;20395;-74
2021/12/09 07:20:05;;;;;;;10.20;4.50;;;4.30;99.90;;;;;;6244952;23;20407;-76
2021/12/09 07:22:32;;;;;;;8.97;4.07;;;4.50;99.90;;;;;;6246289;23;20645;-79
2021/12/09 07:24:58;;;;;;;10.73;3.83;;;4.50;99.90;;;;;;6246834;23;20402;-81
2021/12/09 07:27:25;;;;;;;13.07;4.27;;;4.40;99.90;;;;;;6246485;23;20406;-82
2021/12/09 07:29:52;;;;;;;8.80;3.87;;;4.40;99.90;;;;;;6246677;23;20479;-81
2021/12/09 07:32:19;;;;;;;14.93;4.53;;;4.40;99.90;;;;;;6245898;23;20584;-82
2021/12/09 07:34:47;;;;;;;13.53;4.23;;;4.40;99.90;;;;;;6246669;23;20434;-79
2021/12/09 07:37:14;;;;;;;8.43;4.40;;;4.40;99.90;;;;;;6244999;23;20402;-81
2021/12/09 07:39:42;;;;;;;9.30;4.50;;;4.40;99.90;;;;;;6246752;23;20399;-81
2021/12/09 07:42:11;;;;;;;9.27;4.63;;;4.50;99.90;;;;;;6246232;23;20552;-80
2021/12/09 07:44:38;;;;;;;10.70;4.67;;;4.60;99.90;;;;;;6246405;23;20745;-82
2021/12/09 07:47:05;;;;;;;7.97;4.90;;;4.60;99.90;;;;;;6245920;23;20434;-82
2021/12/09 07:49:33;;;;;;;6.77;5.17;;;4.60;99.90;;;;;;6246338;23;20685;-82
2021/12/09 07:52:03;;;;;;;15.77;5.23;;;4.60;99.90;;;;;;6246566;23;20395;-82
2021/12/09 07:54:31;;;;;;;12.70;5.47;;;4.50;99.90;;;;;;6246882;23;20461;-83
2021/12/09 07:56:57;;;;;;;12.70;5.83;;;4.50;99.90;;;;;;6246020;23;20395;-82
2021/12/09 07:59:24;;;;;;;9.60;5.57;;;4.30;99.90;;;;;;6245836;23;20922;-81
2021/12/09 08:01:52;;;;;;;12.47;6.30;;;4.30;99.90;;;;;;6246056;23;20427;-79
2021/12/09 08:04:19;;;;;;;10.03;5.50;;;4.40;99.90;;;;;;6246286;23;20418;-83
2021/12/09 08:06:51;;;;;;;8.07;5.37;;;4.40;99.90;;;;;;6247029;22;20413;-80
2021/12/09 08:09:22;;;;;;;13.98;6.78;;;4.50;99.90;;;;;;6252537;23;20401;-79
2021/12/09 08:11:48;;;;;;;13.30;6.70;;;4.50;99.90;;;;;;6246041;23;20495;-79
2021/12/09 08:14:16;;;;;;;9.00;6.63;;;4.50;99.90;;;;;;6246260;23;20395;-83
2021/12/09 08:16:43;;;;;;;12.53;5.90;;;4.50;99.90;;;;;;6246270;23;20914;-82
2021/12/09 08:19:12;;;;;;;9.93;6.00;;;4.50;99.90;;;;;;6246553;23;20461;-82
2021/12/09 08:21:40;;;;;;;10.23;6.43;;;4.50;99.90;;;;;;6246355;23;20414;-85
2021/12/09 08:24:08;;;;;;;11.80;6.97;;;4.60;99.90;;;;;;6246741;23;20395;-83
2021/12/09 08:26:38;;;;;;;6.90;5.43;;;4.60;99.90;;;;;;6247569;23;20396;-87
2021/12/09 08:29:05;;;;;;;10.27;5.90;;;4.60;99.90;;;;;;6247218;23;20384;-85
2021/12/09 08:31:34;;;;;;;12.53;6.43;;;4.70;99.90;;;;;;6247339;23;20387;-84
2021/12/09 08:34:01;;;;;;;9.57;5.87;;;4.60;99.90;;;;;;6246889;23;20770;-86
2021/12/09 08:36:32;;;;;;;13.07;7.93;;;4.60;99.90;;;;;;6246865;23;20399;-82
2021/12/09 08:38:59;;;;;;;12.87;6.97;;;4.60;99.90;;;;;;6246988;23;20404;-83
2021/12/09 08:41:28;;;;;;;7.80;6.40;;;4.60;99.90;;;;;;6247171;23;20162;-86
2021/12/09 08:44:00;;;;;;;12.10;6.93;;;4.50;99.90;;;;;;6247423;23;20736;-84
2021/12/09 08:46:32;;;;;;;9.97;7.10;;;4.60;99.90;;;;;;6247872;23;20422;-86
2021/12/09 08:49:05;;;;;;;10.60;6.93;;;4.60;99.90;;;;;;6247600;23;20407;-86
2021/12/09 08:51:38;;;;;;;13.13;7.30;;;4.60;99.90;;;;;;6247343;23;20391;-84
2021/12/09 08:54:08;;;;;;;11.63;7.60;;;4.60;99.90;;;;;;6248769;23;20396;-84
2021/12/09 08:56:36;;;;;;;11.50;7.53;;;4.70;99.90;;;;;;6248824;23;20867;-82
2021/12/09 08:59:06;;;;;;;15.93;8.93;;;4.70;99.90;;;;;;6247770;23;20888;-82
2021/12/09 09:01:33;;;;;;;15.82;11.48;;;4.70;99.90;;;;;;6247338;23;20393;-83
2021/12/09 09:04:01;;;;;;;11.97;9.40;;;4.80;99.90;;;;;;6246927;23;20257;-77
2021/12/09 09:06:32;;;;;;;13.30;8.27;;;4.80;99.90;;;;;;6247376;23;20479;-80
2021/12/09 09:08:59;;;;;;;15.03;9.37;;;4.70;99.90;;;;;;6247133;23;20427;-85
2021/12/09 09:11:31;;;;;;;13.30;7.80;;;4.80;99.90;;;;;;6248140;23;20514;-81
2021/12/09 09:13:59;;;;;;;13.17;7.63;;;4.70;99.90;;;;;;6248419;23;20257;-81
2021/12/09 09:16:27;;;;;;;15.73;8.60;;;4.70;99.90;;;;;;6250162;23;20421;-83
2021/12/09 09:18:57;;;;;;;11.73;8.77;;;4.70;99.90;;;;;;6258207;23;20475;-85
2021/12/09 09:21:25;;;;;;;18.13;8.37;;;4.80;99.90;;;;;;6258133;22;20188;-84
2021/12/09 09:23:52;;;;;;;12.33;8.93;;;4.80;99.90;;;;;;6253953;22;20445;-80
2021/12/09 09:26:20;;;;;;;18.67;9.93;;;4.80;99.90;;;;;;6248677;23;20404;-80
2021/12/09 09:28:47;;;;;;;15.07;8.97;;;4.90;99.90;;;;;;6247583;23;20174;-83
2021/12/09 09:31:14;;;;;;;12.33;9.27;;;4.90;99.90;;;;;;6246067;23;20163;-83
2021/12/09 09:33:43;;;;;;;14.77;9.47;;;4.90;99.90;;;;;;6246108;23;20400;-82
2021/12/09 09:36:10;;;;;;;14.40;8.73;;;5.00;99.90;;;;;;6243729;23;20411;-81
2021/12/09 09:38:37;;;;;;;15.90;8.57;;;4.90;99.90;;;;;;6246403;23;20184;-82
2021/12/09 09:41:09;;;;;;;12.03;9.07;;;4.90;99.90;;;;;;6245649;23;20712;-83
2021/12/09 09:43:56;;;;;;;12.53;8.83;;;4.90;99.90;;;;;;6245586;23;20342;-82
2021/12/09 09:46:26;;;;;;;15.10;8.83;;;5.10;99.90;;;;;;6245538;23;20775;-82
2021/12/09 09:48:58;;;;;;;15.00;8.83;;;5.20;99.90;;;;;;6245526;23;20387;-80
2021/12/09 09:51:27;;;;;;;13.93;9.23;;;5.20;99.90;;;;;;6245218;23;20392;-79
2021/12/09 09:53:54;;;;;;;12.97;9.10;;;5.30;99.90;;;;;;6245063;23;20174;-83
2021/12/09 09:56:24;;;;;;;14.23;9.30;;;5.30;99.90;;;;;;6239997;23;20178;-82
2021/12/09 09:58:55;;;;;;;14.97;9.07;;;5.40;99.90;;;;;;6245784;23;20186;-82
2021/12/09 10:01:24;;;;;;;13.43;9.40;;;5.40;99.90;;;;;;6247100;23;20614;-81
2021/12/09 10:03:59;;;;;;;19.87;9.37;;;5.50;99.90;;;;;;6247700;23;20198;-81
2021/12/09 10:06:27;;;;;;;17.27;9.10;;;5.50;99.90;;;;;;6247911;23;20166;-83
2021/12/09 10:08:54;;;;;;;12.07;9.10;;;5.50;99.90;;;;;;6246791;23;20509;-82
2021/12/09 10:11:21;;;;;;;13.50;8.53;;;5.50;99.90;;;;;;6246711;23;20166;-81
2021/12/09 10:13:48;;;;;;;15.97;9.17;;;5.40;99.90;;;;;;6247873;23;20492;-83
2021/12/09 10:16:20;;;;;;;18.07;9.30;;;5.50;99.90;;;;;;6247748;23;20174;-83
2021/12/09 10:18:51;;;;;;;13.83;9.83;;;5.30;99.90;;;;;;6240527;22;20421;-83
2021/12/09 10:21:22;;;;;;;23.50;11.80;;;5.30;99.90;;;;;;6245206;23;20400;-83
2021/12/09 10:23:59;;;;;;;17.57;8.97;;;5.30;99.90;;;;;;6246589;23;20244;-79
2021/12/09 10:26:28;;;;;;;16.07;9.00;;;5.40;99.90;;;;;;6245825;23;20169;-81
2021/12/09 10:29:06;;;;;;;16.63;9.13;;;5.50;99.90;;;;;;6247186;23;20166;-79
2021/12/09 10:31:36;;;;;;;16.47;9.20;;;5.50;99.90;;;;;;6246541;23;20173;-78
2021/12/09 10:34:36;;;;;;;14.30;9.67;;;5.60;99.90;;;;;;6246842;23;20182;-80
2021/12/09 10:37:09;;;;;;;11.20;8.63;;;5.70;99.90;;;;;;6257603;22;20226;-91
2021/12/09 10:39:48;;;;;;;16.40;9.07;;;5.70;99.90;;;;;;6259278;23;20185;-89
2021/12/09 10:42:24;;;;;;;18.97;8.90;;;5.70;99.90;;;;;;6251315;23;20167;-89
2021/12/09 10:44:57;;;;;;;16.77;7.83;;;5.70;99.90;;;;;;6252999;23;20228;-86
2021/12/09 10:47:45;;;;;;;12.93;8.53;;;5.80;99.90;;;;;;6253055;23;20168;-88
2021/12/09 10:50:22;;;;;;;13.57;7.97;;;5.80;99.90;;;;;;6247909;22;20222;-89
2021/12/09 10:52:53;;;;;;;14.43;9.00;;;5.80;99.90;;;;;;6252692;23;20696;-89
2021/12/09 10:55:25;;;;;;;21.03;10.20;;;5.80;99.90;;;;;;6248607;23;20202;-80
2021/12/09 10:58:05;;;;;;;15.30;9.27;;;5.90;99.90;;;;;;6247346;23;20178;-87
2021/12/09 11:00:40;;;;;;;16.50;8.87;;;5.90;99.90;;;;;;6248243;23;20169;-82
2021/12/09 11:03:10;;;;;;;21.60;9.57;;;5.70;99.90;;;;;;6248733;22;20189;-81
2021/12/09 11:05:39;;;;;;;13.77;8.57;;;5.70;99.90;;;;;;6247462;23;20609;-86
2021/12/09 11:08:34;;;;;;;13.67;7.47;;;5.70;99.90;;;;;;6246886;22;20636;-86
2021/12/09 11:11:08;;;;;;;14.57;8.68;;;5.70;99.90;;;;;;6247223;23;20394;-87
2021/12/09 11:13:38;;;;;;;13.63;7.30;;;5.60;99.90;;;;;;6246980;23;20631;-85
2021/12/09 11:16:07;;;;;;;17.17;7.70;;;5.60;99.90;;;;;;6247064;23;20166;-82
2021/12/09 11:18:39;;;;;;;18.17;7.80;;;5.60;99.90;;;;;;6245353;23;20506;-81
2021/12/09 11:21:10;;;;;;;15.13;7.43;;;5.70;99.90;;;;;;6246740;23;20162;-84
2021/12/09 11:23:41;;;;;;;16.57;8.93;;;5.60;99.90;;;;;;6246699;23;20198;-83
2021/12/09 11:26:36;;;;;;;13.23;7.07;;;5.70;99.90;;;;;;6247573;23;20174;-77
2021/12/09 11:29:08;;;;;;;16.30;7.70;;;5.80;99.90;;;;;;6247750;22;20606;-85
2021/12/09 11:31:40;;;;;;;15.03;8.17;;;5.80;99.90;;;;;;6247120;23;20161;-80
2021/12/09 11:34:12;;;;;;;14.10;7.60;;;5.80;99.90;;;;;;6247902;23;20272;-83
2021/12/09 11:36:41;;;;;;;15.73;7.70;;;5.90;99.90;;;;;;6247528;22;20541;-79
2021/12/09 11:39:13;;;;;;;15.57;7.67;;;6.00;99.90;;;;;;6247285;23;20170;-80
2021/12/09 11:41:42;;;;;;;12.30;7.33;;;5.90;99.90;;;;;;6247444;23;20551;-80
2021/12/09 11:44:10;;;;;;;14.17;7.17;;;5.90;99.90;;;;;;6247382;22;20527;-78
2021/12/09 11:46:40;;;;;;;16.13;7.23;;;5.90;99.90;;;;;;6247561;23;20202;-78
2021/12/09 11:49:07;;;;;;;14.23;7.30;;;6.00;99.90;;;;;;6247722;23;20497;-80
2021/12/09 11:51:34;;;;;;;15.37;7.20;;;6.00;99.90;;;;;;6247140;23;20162;-79
2021/12/09 11:54:04;;;;;;;24.03;8.13;;;6.10;99.90;;;;;;6247542;23;20172;-77
2021/12/09 11:56:39;;;;;;;16.23;7.83;;;6.10;99.90;;;;;;6247269;22;20242;-79
2021/12/09 12:11:08;;;;;;;16.63;7.00;;;6.10;99.90;;;;;;6248016;23;20263;-79
2021/12/09 12:13:45;;;;;;;13.17;6.37;;;6.20;99.90;;;;;;6246114;23;20245;-82
2021/12/09 12:16:43;;;;;;;12.77;5.20;;;6.20;99.90;;;;;;6246307;23;20181;-81
2021/12/09 12:19:19;;;;;;;13.50;5.50;;;6.10;99.90;;;;;;6246853;23;20220;-85
2021/12/09 12:22:04;;;;;;;12.47;4.90;;;6.30;99.90;;;;;;6246369;23;20200;-80
2021/12/09 12:27:37;;;;;;;12.20;5.03;;;6.30;99.90;;;;;;6227812;23;20482;-79
2021/12/09 12:30:21;;;;;;;16.67;5.57;;;6.40;99.90;;;;;;6247435;23;20173;-78
2021/12/09 12:33:12;;;;;;;16.70;5.30;;;6.60;99.90;;;;;;6247089;23;20170;-78
2021/12/09 12:36:05;;;;;;;17.20;4.97;;;6.50;99.90;;;;;;6246291;23;20645;-81
2021/12/09 12:38:47;;;;;;;14.83;5.43;;;6.50;99.90;;;;;;6246126;23;20182;-80
2021/12/09 12:41:16;;;;;;;13.47;4.73;;;6.50;99.90;;;;;;6247585;23;20166;-81
2021/12/09 12:43:52;;;;;;;16.67;5.63;;;6.60;99.90;;;;;;6246348;23;20206;-78
2021/12/09 12:46:42;;;;;;;14.03;4.57;;;6.70;99.90;;;;;;6246758;23;20272;-76
2021/12/09 12:49:21;;;;;;;13.07;4.40;;;6.70;99.90;;;;;;6247161;23;20663;-79
2021/12/09 12:51:55;;;;;;;17.33;5.33;;;6.80;99.90;;;;;;6247474;23;20192;-79
2021/12/09 12:54:47;;;;;;;14.67;4.83;;;6.90;99.90;;;;;;6246602;23;20192;-82
2021/12/09 12:57:30;;;;;;;14.97;4.30;;;6.90;99.90;;;;;;6247057;22;20178;-81
2021/12/09 13:00:13;;;;;;;16.40;4.67;;;6.80;99.90;;;;;;6247089;23;20214;-78
2021/12/09 13:03:04;;;;;;;20.40;6.97;;;6.70;99.90;;;;;;6246346;23;20545;-84
2021/12/09 13:05:49;;;;;;;15.13;5.10;;;6.70;99.90;;;;;;6246167;23;20178;-84
2021/12/09 13:08:43;;;;;;;13.33;5.37;;;6.80;99.90;;;;;;6246580;23;20211;-81
2021/12/09 13:11:18;;;;;;;14.23;4.77;;;6.90;99.90;;;;;;6246347;23;20170;-81
2021/12/09 13:13:57;;;;;;;18.37;5.07;;;6.90;99.90;;;;;;6245859;22;20169;-79
2021/12/09 13:16:37;;;;;;;12.70;4.33;;;7.00;99.90;;;;;;6244142;23;20690;-78
2021/12/09 13:19:09;;;;;;;23.60;5.00;;;6.90;99.90;;;;;;6244994;22;20185;-82
2021/12/09 13:21:47;;;;;;;12.47;4.47;;;6.80;99.90;;;;;;6246292;23;20193;-76
2021/12/09 13:24:38;;;;;;;12.67;4.37;;;6.90;99.90;;;;;;6246255;23;20193;-80